Time;durP1;ratioP1;P1;durP2;ratioP2;P2;SDS_P1;SDS_P2;PMS_P1;PMS_P2;Temp;Humidity;BMP_temperature;BMP_pressure;BME280_temperature;BME280_humidity;BME280_pressure;Samples;Min_cycle;Max_cycle;Signal;HPM_P1;HPM_P2
2023/05/08 07:03:35;;;;;;;;;25.50;21.75;;;;;;;;5324497;22;32699;-73
2023/05/08 07:06:01;;;;;;;;;21.25;19.75;;;;;;;;6249069;22;31684;-74
2023/05/08 07:08:28;;;;;;;;;18.75;15.25;;;;;;;;6254753;22;30974;-73
2023/05/08 07:10:54;;;;;;;;;17.00;17.00;;;;;;;;6254280;22;31087;-74
2023/05/08 07:13:20;;;;;;;;;13.25;13.25;;;;;;;;6254423;22;31034;-75
2023/05/08 07:15:45;;;;;;;;;19.00;17.00;;;;;;;;6254074;22;32155;-77
2023/05/08 07:18:11;;;;;;;;;16.75;16.25;;;;;;;;6254031;22;31169;-73
2023/05/08 07:20:36;;;;;;;;;14.25;14.25;;;;;;;;6254294;22;31407;-76
2023/05/08 07:23:01;;;;;;;;;16.25;14.00;;;;;;;;6254623;22;31079;-77
2023/05/08 07:25:26;;;;;;;;;15.75;14.75;;;;;;;;6226926;22;33154;-76
2023/05/08 07:27:51;;;;;;;;;9.25;9.00;;;;;;;;6252129;22;31358;-79
2023/05/08 07:30:17;;;;;;;;;15.75;14.00;;;;;;;;6254108;22;31377;-77
2023/05/08 07:32:42;;;;;;;;;12.50;12.00;;;;;;;;6253917;22;30967;-73
2023/05/08 07:35:09;;;;;;;;;16.75;14.50;;;;;;;;6254359;22;31097;-78
2023/05/08 07:37:34;;;;;;;;;16.00;14.00;;;;;;;;6254193;22;31030;-77
2023/05/08 07:40:00;;;;;;;;;15.50;14.00;;;;;;;;6253695;22;31247;-81
2023/05/08 07:42:25;;;;;;;;;13.50;11.25;;;;;;;;6254608;22;31030;-78
2023/05/08 07:44:51;;;;;;;;;14.00;13.00;;;;;;;;6254674;22;31546;-77
2023/05/08 07:47:17;;;;;;;;;12.50;12.00;;;;;;;;6226661;22;31002;-80
2023/05/08 07:49:42;;;;;;;;;16.50;15.25;;;;;;;;6255361;22;31129;-80
2023/05/08 07:52:07;;;;;;;;;15.25;13.25;;;;;;;;6228677;22;30995;-86
2023/05/08 07:54:32;;;;;;;;;12.75;12.00;;;;;;;;6255290;22;31013;-79
2023/05/08 07:56:57;;;;;;;;;15.75;13.50;;;;;;;;6255532;22;30932;-77
2023/05/08 07:59:22;;;;;;;;;11.50;11.50;;;;;;;;6253084;22;31130;-76
2023/05/08 08:01:48;;;;;;;;;16.25;16.25;;;;;;;;6255053;22;30947;-75
2023/05/08 08:04:13;;;;;;;;;12.75;10.00;;;;;;;;6254386;22;31764;-74
2023/05/08 08:06:38;;;;;;;;;14.00;12.75;;;;;;;;6255042;22;31121;-73
2023/05/08 08:09:04;;;;;;;;;20.25;20.00;;;;;;;;6255683;22;30967;-74
2023/05/08 08:11:29;;;;;;;;;14.25;14.25;;;;;;;;6256503;22;30993;-73
2023/05/08 08:13:54;;;;;;;;;11.50;11.50;;;;;;;;6254813;22;32601;-78
2023/05/08 08:16:19;;;;;;;;;18.75;16.75;;;;;;;;6254749;22;31110;-74
2023/05/08 08:18:45;;;;;;;;;23.25;19.50;;;;;;;;6254823;22;31176;-75
2023/05/08 08:21:10;;;;;;;;;19.00;17.25;;;;;;;;6255201;22;31307;-74
2023/05/08 08:23:35;;;;;;;;;17.50;14.00;;;;;;;;6255049;22;31391;-74
2023/05/08 08:26:00;;;;;;;;;13.75;13.75;;;;;;;;6254688;22;31361;-73
2023/05/08 08:28:25;;;;;;;;;17.75;17.25;;;;;;;;6227565;22;31129;-72
2023/05/08 08:30:51;;;;;;;;;13.50;13.50;;;;;;;;6255140;22;30936;-74
2023/05/08 08:33:16;;;;;;;;;17.75;14.00;;;;;;;;6254674;22;31762;-73
2023/05/08 08:35:41;;;;;;;;;14.25;12.25;;;;;;;;6254332;22;31581;-73
2023/05/08 08:38:06;;;;;;;;;17.25;16.50;;;;;;;;6254676;22;31212;-73
2023/05/08 08:40:31;;;;;;;;;13.50;13.00;;;;;;;;6255442;22;31030;-73
2023/05/08 08:42:57;;;;;;;;;14.50;14.50;;;;;;;;6255168;22;31250;-73
2023/05/08 08:45:22;;;;;;;;;16.00;14.75;;;;;;;;6255037;22;31389;-73
2023/05/08 08:47:50;;;;;;;;;19.25;15.00;;;;;;;;6255575;22;31382;-73
2023/05/08 08:50:18;;;;;;;;;12.75;11.25;;;;;;;;6255810;22;31109;-73
2023/05/08 08:52:46;;;;;;;;;14.00;13.00;;;;;;;;6254632;22;31393;-73
2023/05/08 08:55:14;;;;;;;;;12.75;11.00;;;;;;;;6255140;22;30411;-73
2023/05/08 08:57:44;;;;;;;;;15.00;11.75;;;;;;;;6255042;22;31057;-73
2023/05/08 09:00:11;;;;;;;;;13.50;11.75;;;;;;;;6227480;22;31446;-73
2023/05/08 09:02:36;;;;;;;;;15.00;12.00;;;;;;;;6254131;22;31550;-73
2023/05/08 09:05:02;;;;;;;;;14.25;13.25;;;;;;;;6254533;22;31141;-72
2023/05/08 09:07:28;;;;;;;;;13.00;12.50;;;;;;;;6254539;22;31040;-73
2023/05/08 09:09:54;;;;;;;;;16.50;13.50;;;;;;;;6254645;22;31073;-72
2023/05/08 09:12:19;;;;;;;;;18.00;15.50;;;;;;;;6254590;22;32386;-72
2023/05/08 09:14:45;;;;;;;;;14.75;13.75;;;;;;;;6254113;22;31090;-73
2023/05/08 09:17:10;;;;;;;;;9.25;8.50;;;;;;;;6255010;22;31070;-73
2023/05/08 09:19:35;;;;;;;;;14.75;14.50;;;;;;;;6254687;22;31122;-73
2023/05/08 09:22:02;;;;;;;;;11.50;10.25;;;;;;;;6254602;22;31708;-73
2023/05/08 09:24:46;;;;;;;;;13.00;13.00;;;;;;;;6254647;22;31250;-73
2023/05/08 09:27:21;;;;;;;;;12.75;11.75;;;;;;;;6254244;22;31403;-74
2023/05/08 09:29:57;;;;;;;;;12.00;11.00;;;;;;;;6254215;22;31006;-74
2023/05/08 09:32:23;;;;;;;;;11.75;10.00;;;;;;;;6254087;22;31988;-73
2023/05/08 09:34:51;;;;;;;;;12.75;11.50;;;;;;;;6254976;22;31322;-74
2023/05/08 09:37:16;;;;;;;;;13.25;13.25;;;;;;;;6254715;22;31518;-75
2023/05/08 09:39:42;;;;;;;;;11.75;10.25;;;;;;;;6255630;22;31040;-73
2023/05/08 09:42:08;;;;;;;;;14.50;14.50;;;;;;;;6254020;22;31258;-74
2023/05/08 09:44:49;;;;;;;;;11.75;11.75;;;;;;;;6254469;22;31209;-74
2023/05/08 09:47:16;;;;;;;;;11.50;10.00;;;;;;;;6254301;22;31434;-74
2023/05/08 09:50:00;;;;;;;;;6.00;6.00;;;;;;;;6255603;22;30978;-73
2023/05/08 09:52:29;;;;;;;;;14.25;12.00;;;;;;;;6253959;22;31315;-73
2023/05/08 09:54:58;;;;;;;;;11.25;10.00;;;;;;;;6253745;22;31097;-73
2023/05/08 09:57:23;;;;;;;;;13.25;12.25;;;;;;;;6254822;22;31031;-73
2023/05/08 09:59:48;;;;;;;;;13.25;13.25;;;;;;;;6253572;22;31120;-72
2023/05/08 10:02:15;;;;;;;;;9.50;9.00;;;;;;;;6253945;22;31643;-71
2023/05/08 10:04:40;;;;;;;;;12.75;11.50;;;;;;;;6253884;22;31053;-73
2023/05/08 10:07:05;;;;;;;;;12.50;11.75;;;;;;;;6255468;22;31006;-74
2023/05/08 10:09:30;;;;;;;;;12.50;11.25;;;;;;;;6255853;22;31233;-74
2023/05/08 10:11:56;;;;;;;;;11.75;11.75;;;;;;;;6255561;22;31205;-74
2023/05/08 10:14:22;;;;;;;;;13.00;12.00;;;;;;;;6255367;22;30995;-74
2023/05/08 10:16:48;;;;;;;;;16.75;16.75;;;;;;;;6255742;22;31015;-73
2023/05/08 10:19:15;;;;;;;;;14.25;14.00;;;;;;;;6254657;22;31461;-73
2023/05/08 10:21:43;;;;;;;;;13.75;11.50;;;;;;;;6255196;22;31150;-69
2023/05/08 10:24:12;;;;;;;;;12.25;11.00;;;;;;;;6254968;22;31216;-70
2023/05/08 10:26:41;;;;;;;;;11.50;11.25;;;;;;;;6253590;22;31181;-71
2023/05/08 10:29:07;;;;;;;;;10.50;10.50;;;;;;;;6227194;22;31414;-70
2023/05/08 10:31:34;;;;;;;;;16.25;14.25;;;;;;;;6254466;22;31375;-70
2023/05/08 10:34:00;;;;;;;;;16.75;15.25;;;;;;;;6254134;22;31085;-69
2023/05/08 10:36:27;;;;;;;;;13.50;13.25;;;;;;;;6254175;22;31320;-69
2023/05/08 10:38:52;;;;;;;;;13.50;13.00;;;;;;;;6255524;22;31061;-73
2023/05/08 10:41:18;;;;;;;;;18.75;17.75;;;;;;;;6255109;22;31530;-76
2023/05/08 10:43:43;;;;;;;;;14.75;14.25;;;;;;;;6255239;22;31180;-74
2023/05/08 10:46:14;;;;;;;;;12.25;12.25;;;;;;;;6255356;22;31047;-76
2023/05/08 10:48:53;;;;;;;;;14.25;13.50;;;;;;;;6253950;22;30931;-73
2023/05/08 10:51:19;;;;;;;;;10.00;9.00;;;;;;;;6253638;22;32218;-76
2023/05/08 10:53:44;;;;;;;;;9.40;9.40;;;;;;;;6254328;22;31136;-74
2023/05/08 10:56:09;;;;;;;;;12.25;11.00;;;;;;;;6254367;22;31061;-72
2023/05/08 10:58:36;;;;;;;;;14.50;14.50;;;;;;;;6254982;22;31456;-82
2023/05/08 11:01:09;;;;;;;;;12.25;12.25;;;;;;;;6254698;22;31436;-72
2023/05/08 11:03:45;;;;;;;;;10.75;9.75;;;;;;;;6255329;22;31193;-81
2023/05/08 11:06:10;;;;;;;;;9.25;8.00;;;;;;;;6254771;22;31050;-74
2023/05/08 11:08:43;;;;;;;;;10.75;10.25;;;;;;;;6255257;22;30986;-75
2023/05/08 11:11:13;;;;;;;;;14.75;14.00;;;;;;;;6254876;22;31039;-76
2023/05/08 11:13:44;;;;;;;;;11.75;11.75;;;;;;;;6255147;22;31436;-81
2023/05/08 11:16:10;;;;;;;;;11.25;10.00;;;;;;;;6255189;22;31075;-83
2023/05/08 11:18:35;;;;;;;;;19.75;18.00;;;;;;;;6254876;22;31431;-74
2023/05/08 11:21:05;;;;;;;;;15.50;13.00;;;;;;;;6255172;22;31877;-74
2023/05/08 11:23:31;;;;;;;;;10.50;10.50;;;;;;;;6255033;22;31078;-72
2023/05/08 11:26:00;;;;;;;;;13.50;11.00;;;;;;;;6254399;22;31330;-74
2023/05/08 11:28:25;;;;;;;;;16.75;14.00;;;;;;;;6253785;22;31034;-73
2023/05/08 11:30:57;;;;;;;;;10.25;9.25;;;;;;;;6253553;22;31840;-73
2023/05/08 11:33:27;;;;;;;;;11.00;10.75;;;;;;;;6253546;22;31205;-71
2023/05/08 11:36:10;;;;;;;;;13.00;12.00;;;;;;;;6255488;22;31026;-72
2023/05/08 11:38:37;;;;;;;;;14.50;11.75;;;;;;;;6227644;22;31148;-75
2023/05/08 11:41:05;;;;;;;;;12.25;10.25;;;;;;;;6254498;22;31863;-73
2023/05/08 11:43:30;;;;;;;;;7.75;7.50;;;;;;;;6254351;22;31219;-74
2023/05/08 11:45:58;;;;;;;;;9.00;9.00;;;;;;;;6255094;22;31127;-75
2023/05/08 11:48:23;;;;;;;;;12.00;10.75;;;;;;;;6255063;22;31002;-74
2023/05/08 11:50:50;;;;;;;;;10.25;9.25;;;;;;;;6255197;22;31165;-72
2023/05/08 11:53:15;;;;;;;;;11.00;9.75;;;;;;;;6254992;22;31201;-77
2023/05/08 11:55:40;;;;;;;;;10.50;10.00;;;;;;;;6255216;22;31078;-74
2023/05/08 11:58:12;;;;;;;;;9.00;9.00;;;;;;;;6255493;22;31037;-73
2023/05/08 12:00:43;;;;;;;;;9.00;9.00;;;;;;;;6226938;22;32829;-73
2023/05/08 12:03:10;;;;;;;;;8.50;8.50;;;;;;;;6254905;22;31046;-72
2023/05/08 12:05:35;;;;;;;;;11.00;8.75;;;;;;;;6254280;22;31371;-74
2023/05/08 12:08:03;;;;;;;;;6.75;6.75;;;;;;;;6255093;22;31044;-76
2023/05/08 12:10:28;;;;;;;;;8.00;8.00;;;;;;;;6254977;22;31110;-78
2023/05/08 12:12:53;;;;;;;;;7.50;5.75;;;;;;;;6255122;22;31517;-77
2023/05/08 12:15:18;;;;;;;;;6.25;6.25;;;;;;;;6254774;22;31198;-77
2023/05/08 12:17:43;;;;;;;;;10.25;8.50;;;;;;;;6255339;22;31105;-77
2023/05/08 12:20:13;;;;;;;;;8.00;8.00;;;;;;;;6254685;22;31106;-77
2023/05/08 12:22:41;;;;;;;;;6.50;6.50;;;;;;;;6254488;22;30984;-83
2023/05/08 12:25:07;;;;;;;;;5.75;5.75;;;;;;;;6227494;22;31475;-76
2023/05/08 12:27:33;;;;;;;;;5.75;5.75;;;;;;;;6255016;22;31142;-74
2023/05/08 12:29:58;;;;;;;;;5.25;5.25;;;;;;;;6255124;22;31006;-75
2023/05/08 12:32:24;;;;;;;;;5.50;5.50;;;;;;;;6255006;22;31018;-74
2023/05/08 12:34:49;;;;;;;;;8.50;6.25;;;;;;;;6255096;22;31074;-76
2023/05/08 12:37:27;;;;;;;;;5.00;5.00;;;;;;;;6254911;22;31083;-76
2023/05/08 12:39:52;;;;;;;;;8.75;8.00;;;;;;;;6254943;22;31803;-75
2023/05/08 12:42:17;;;;;;;;;8.50;5.75;;;;;;;;6254562;22;31014;-76
2023/05/08 12:44:49;;;;;;;;;7.75;7.75;;;;;;;;6255083;22;30998;-76
2023/05/08 12:47:14;;;;;;;;;6.25;6.25;;;;;;;;6255267;22;31035;-76
2023/05/08 12:49:39;;;;;;;;;6.00;6.00;;;;;;;;6254761;22;31690;-76
2023/05/08 12:52:06;;;;;;;;;4.75;4.75;;;;;;;;6254221;22;31407;-76
2023/05/08 12:54:45;;;;;;;;;8.00;6.00;;;;;;;;6253818;22;31002;-76
2023/05/08 12:57:16;;;;;;;;;5.75;5.75;;;;;;;;6254624;22;30956;-76
2023/05/08 12:59:42;;;;;;;;;4.00;4.00;;;;;;;;6253653;22;31791;-76
2023/05/08 13:02:11;;;;;;;;;3.25;2.50;;;;;;;;6254402;22;31046;-76
2023/05/08 13:04:37;;;;;;;;;6.25;5.25;;;;;;;;6253429;22;31018;-76
2023/05/08 13:07:02;;;;;;;;;6.75;5.50;;;;;;;;6254080;22;30995;-76
2023/05/08 13:09:27;;;;;;;;;7.00;6.00;;;;;;;;6254451;22;31411;-76
2023/05/08 13:11:52;;;;;;;;;3.60;3.60;;;;;;;;6254883;22;31379;-76
2023/05/08 13:14:18;;;;;;;;;8.25;7.25;;;;;;;;6255566;22;31143;-76
2023/05/08 13:16:43;;;;;;;;;6.00;5.50;;;;;;;;6228040;22;31495;-75
2023/05/08 13:19:08;;;;;;;;;7.00;6.00;;;;;;;;6254987;22;31180;-75
2023/05/08 13:21:34;;;;;;;;;4.25;4.25;;;;;;;;6255250;22;31382;-76
2023/05/08 13:24:00;;;;;;;;;4.50;4.50;;;;;;;;6255470;22;31389;-76
2023/05/08 13:26:25;;;;;;;;;5.50;5.25;;;;;;;;6227180;22;31062;-76
2023/05/08 13:28:50;;;;;;;;;4.25;4.25;;;;;;;;6254276;22;32651;-76
2023/05/08 13:31:15;;;;;;;;;5.50;5.50;;;;;;;;6254315;22;31115;-74
2023/05/08 13:33:41;;;;;;;;;5.25;5.25;;;;;;;;6255087;22;31232;-75
2023/05/08 13:36:07;;;;;;;;;7.25;7.00;;;;;;;;6255559;22;31070;-75
2023/05/08 13:38:33;;;;;;;;;5.50;4.00;;;;;;;;6254564;22;31078;-75
2023/05/08 13:40:58;;;;;;;;;4.00;3.75;;;;;;;;6254425;22;31051;-76
2023/05/08 13:43:23;;;;;;;;;4.50;4.50;;;;;;;;6254013;22;31163;-76
2023/05/08 13:45:49;;;;;;;;;6.00;6.00;;;;;;;;6255624;22;31386;-77
2023/05/08 13:48:14;;;;;;;;;4.25;4.25;;;;;;;;6255417;22;31026;-76
2023/05/08 13:50:39;;;;;;;;;5.75;5.50;;;;;;;;6255873;22;30955;-76
2023/05/08 13:53:05;;;;;;;;;5.50;3.75;;;;;;;;6255878;22;31361;-77
2023/05/08 13:55:30;;;;;;;;;4.00;4.00;;;;;;;;6255782;22;30924;-76
2023/05/08 13:57:56;;;;;;;;;3.00;3.00;;;;;;;;6255833;22;31078;-76
2023/05/08 14:00:21;;;;;;;;;3.00;2.25;;;;;;;;6255865;22;30982;-75
2023/05/08 14:02:46;;;;;;;;;2.50;2.50;;;;;;;;6255997;22;31006;-75
2023/05/08 14:05:11;;;;;;;;;2.25;2.25;;;;;;;;6246407;22;31379;-76
2023/05/08 14:07:37;;;;;;;;;2.50;2.50;;;;;;;;6255477;22;31541;-75
2023/05/08 14:10:02;;;;;;;;;3.75;3.75;;;;;;;;6253840;22;30959;-76
2023/05/08 14:12:27;;;;;;;;;3.25;3.25;;;;;;;;6253832;22;31178;-77
2023/05/08 14:14:53;;;;;;;;;3.50;3.50;;;;;;;;6255103;22;31366;-76
2023/05/08 14:17:18;;;;;;;;;3.00;3.00;;;;;;;;6253709;22;32547;-76
2023/05/08 14:19:44;;;;;;;;;3.00;3.00;;;;;;;;6254959;22;31404;-74
2023/05/08 14:22:10;;;;;;;;;2.25;2.25;;;;;;;;6256277;22;31484;-79
2023/05/08 14:24:35;;;;;;;;;5.00;4.00;;;;;;;;6255243;22;31044;-76
2023/05/08 14:27:04;;;;;;;;;4.75;3.25;;;;;;;;6254659;22;31362;-77
2023/05/08 14:29:29;;;;;;;;;3.25;3.00;;;;;;;;6256289;22;31131;-77
2023/05/08 14:31:55;;;;;;;;;3.75;3.75;;;;;;;;6255906;22;31116;-76
2023/05/08 14:34:20;;;;;;;;;2.75;2.75;;;;;;;;6255792;22;31366;-75
2023/05/08 14:36:45;;;;;;;;;4.25;3.25;;;;;;;;6255112;22;31095;-77
2023/05/08 14:39:10;;;;;;;;;5.25;3.25;;;;;;;;6255768;22;31139;-76
2023/05/08 14:41:37;;;;;;;;;3.00;3.00;;;;;;;;6253264;22;30975;-78
2023/05/08 14:44:02;;;;;;;;;4.25;4.25;;;;;;;;6253517;22;31020;-75
2023/05/08 14:46:28;;;;;;;;;3.50;3.50;;;;;;;;6255429;22;31050;-77
2023/05/08 14:48:53;;;;;;;;;3.00;2.00;;;;;;;;6254635;22;31232;-75
2023/05/08 14:51:18;;;;;;;;;3.00;3.00;;;;;;;;6253430;22;31168;-75
2023/05/08 14:53:44;;;;;;;;;3.25;2.25;;;;;;;;6255758;22;30994;-73
2023/05/08 14:56:09;;;;;;;;;3.75;3.75;;;;;;;;6255098;22;31056;-75
2023/05/08 14:58:34;;;;;;;;;3.00;2.25;;;;;;;;6254743;22;31082;-76
2023/05/08 15:01:00;;;;;;;;;2.75;2.75;;;;;;;;6254920;22;31314;-76
2023/05/08 15:03:25;;;;;;;;;4.00;4.00;;;;;;;;6252440;22;31268;-75
2023/05/08 15:05:50;;;;;;;;;5.00;5.00;;;;;;;;6254997;22;31084;-78
2023/05/08 15:08:16;;;;;;;;;4.00;4.00;;;;;;;;6255194;22;31031;-75
2023/05/08 15:10:42;;;;;;;;;4.00;4.00;;;;;;;;6254993;22;31517;-76
2023/05/08 15:13:07;;;;;;;;;3.50;3.50;;;;;;;;6255335;22;31072;-75
2023/05/08 15:15:32;;;;;;;;;4.00;3.00;;;;;;;;6254796;22;32146;-77
2023/05/08 15:17:58;;;;;;;;;7.75;7.00;;;;;;;;6254678;22;31307;-75
2023/05/08 15:20:23;;;;;;;;;3.00;3.00;;;;;;;;6254709;22;31023;-75
2023/05/08 15:22:48;;;;;;;;;6.75;5.50;;;;;;;;6254980;22;30990;-75
2023/05/08 15:25:13;;;;;;;;;2.00;0.25;;;;;;;;6254758;22;32054;-75
2023/05/08 15:27:40;;;;;;;;;3.00;3.00;;;;;;;;6255295;22;31019;-76
2023/05/08 15:30:05;;;;;;;;;2.25;2.25;;;;;;;;6253798;22;31517;-76
2023/05/08 15:32:30;;;;;;;;;3.25;1.50;;;;;;;;6226028;22;31235;-75
2023/05/08 15:34:56;;;;;;;;;3.25;3.25;;;;;;;;6253048;22;31969;-77
2023/05/08 15:37:21;;;;;;;;;4.00;4.00;;;;;;;;6254208;22;31129;-81
2023/05/08 15:39:46;;;;;;;;;5.75;5.75;;;;;;;;6225791;22;31128;-77
2023/05/08 15:42:11;;;;;;;;;2.25;2.25;;;;;;;;6254438;22;31319;-76
2023/05/08 15:44:37;;;;;;;;;2.75;2.75;;;;;;;;6255105;22;31799;-77
2023/05/08 15:47:02;;;;;;;;;3.25;3.25;;;;;;;;6227411;22;31132;-71
2023/05/08 15:49:27;;;;;;;;;7.50;5.75;;;;;;;;6254710;22;31086;-71
2023/05/08 15:51:53;;;;;;;;;3.00;3.00;;;;;;;;6254913;22;31002;-71
2023/05/08 15:54:18;;;;;;;;;4.25;4.25;;;;;;;;6254888;22;31103;-71
2023/05/08 15:56:43;;;;;;;;;4.25;4.25;;;;;;;;6254744;22;31229;-71
2023/05/08 15:59:08;;;;;;;;;3.00;3.00;;;;;;;;6254652;22;31069;-71
2023/05/08 16:01:34;;;;;;;;;2.00;2.00;;;;;;;;6254389;22;31044;-71
2023/05/08 16:03:59;;;;;;;;;3.50;3.50;;;;;;;;6254549;22;31708;-72
2023/05/08 16:06:24;;;;;;;;;5.00;3.25;;;;;;;;6253913;22;31138;-71
2023/05/08 16:08:50;;;;;;;;;2.75;2.75;;;;;;;;6251811;22;31176;-71
2023/05/08 16:11:15;;;;;;;;;3.25;3.25;;;;;;;;6254164;22;31448;-71
2023/05/08 16:13:40;;;;;;;;;4.75;4.75;;;;;;;;6255002;22;31072;-71
2023/05/08 16:16:05;;;;;;;;;3.50;3.50;;;;;;;;6277953;22;31057;-72
2023/05/08 16:18:31;;;;;;;;;4.75;3.00;;;;;;;;6254713;22;30953;-71
2023/05/08 16:20:56;;;;;;;;;4.00;3.25;;;;;;;;6254215;22;31387;-71
2023/05/08 16:23:21;;;;;;;;;3.25;3.25;;;;;;;;6255105;22;31023;-72
2023/05/08 16:25:46;;;;;;;;;4.75;4.75;;;;;;;;6254910;22;31286;-72
2023/05/08 16:28:11;;;;;;;;;3.00;2.75;;;;;;;;6254753;22;31080;-72
2023/05/08 16:30:36;;;;;;;;;2.00;2.00;;;;;;;;6254953;22;30677;-71
2023/05/08 16:33:02;;;;;;;;;3.00;3.00;;;;;;;;6252750;22;31822;-72
2023/05/08 16:35:28;;;;;;;;;3.25;3.25;;;;;;;;6254575;22;31041;-72
2023/05/08 16:37:53;;;;;;;;;4.75;4.00;;;;;;;;6254759;22;31583;-72
2023/05/08 16:40:18;;;;;;;;;3.00;3.00;;;;;;;;6254722;22;31470;-71
2023/05/08 16:42:44;;;;;;;;;5.75;3.75;;;;;;;;6254345;22;31669;-71
2023/05/08 16:45:09;;;;;;;;;4.25;4.25;;;;;;;;6252355;22;30991;-70
2023/05/08 16:47:34;;;;;;;;;2.75;2.75;;;;;;;;6266613;22;30935;-71
2023/05/08 16:50:00;;;;;;;;;3.75;3.75;;;;;;;;6285530;22;30967;-71
2023/05/08 16:52:25;;;;;;;;;5.25;5.25;;;;;;;;6285335;22;31126;-71
2023/05/08 16:54:50;;;;;;;;;5.50;4.00;;;;;;;;6285743;22;31457;-72
2023/05/08 16:57:15;;;;;;;;;3.75;3.75;;;;;;;;6285729;22;30947;-72
2023/05/08 16:59:41;;;;;;;;;2.50;2.50;;;;;;;;6285719;22;31407;-71
2023/05/08 17:02:06;;;;;;;;;3.25;2.75;;;;;;;;6285499;22;31006;-77
2023/05/08 17:04:31;;;;;;;;;2.00;2.00;;;;;;;;6285315;22;31073;-70
2023/05/08 17:06:58;;;;;;;;;4.00;4.00;;;;;;;;6285496;22;30988;-68
2023/05/08 17:09:24;;;;;;;;;4.00;4.00;;;;;;;;6285426;22;31475;-69
2023/05/08 17:11:49;;;;;;;;;3.00;3.00;;;;;;;;6285211;22;31415;-68
2023/05/08 17:14:14;;;;;;;;;3.75;3.75;;;;;;;;6285259;22;31097;-68
2023/05/08 17:16:39;;;;;;;;;2.00;2.00;;;;;;;;6285416;22;31013;-68
2023/05/08 17:19:04;;;;;;;;;2.25;2.25;;;;;;;;6258191;22;31250;-68
2023/05/08 17:21:30;;;;;;;;;3.75;3.75;;;;;;;;6276052;22;31076;-67
2023/05/08 17:23:57;;;;;;;;;3.50;2.75;;;;;;;;6280034;22;31625;-69
2023/05/08 17:26:23;;;;;;;;;3.00;3.00;;;;;;;;6284238;22;31676;-69
2023/05/08 17:28:48;;;;;;;;;3.00;3.00;;;;;;;;6284957;22;30993;-69
2023/05/08 17:31:14;;;;;;;;;3.00;3.00;;;;;;;;6283952;22;31635;-69
2023/05/08 17:33:39;;;;;;;;;4.00;4.00;;;;;;;;6284498;22;30970;-70
2023/05/08 17:36:05;;;;;;;;;3.50;2.25;;;;;;;;6284924;22;31017;-68
2023/05/08 17:38:30;;;;;;;;;3.50;3.50;;;;;;;;6285320;22;30982;-67
2023/05/08 17:40:55;;;;;;;;;3.25;3.25;;;;;;;;6285183;22;31152;-66
2023/05/08 17:43:20;;;;;;;;;3.75;3.00;;;;;;;;6283031;22;31297;-67
2023/05/08 17:45:46;;;;;;;;;3.75;3.00;;;;;;;;6284581;22;31218;-72
2023/05/08 17:48:11;;;;;;;;;6.00;3.50;;;;;;;;6283644;22;31073;-72
2023/05/08 17:50:40;;;;;;;;;4.50;4.50;;;;;;;;6284360;22;30974;-67
2023/05/08 17:53:06;;;;;;;;;2.75;2.75;;;;;;;;6284782;22;31486;-67
2023/05/08 17:55:33;;;;;;;;;3.50;2.50;;;;;;;;6283964;22;31064;-68
2023/05/08 17:57:58;;;;;;;;;3.50;3.50;;;;;;;;6284956;22;30994;-68
2023/05/08 18:00:23;;;;;;;;;4.00;4.00;;;;;;;;6285457;22;31959;-68
2023/05/08 18:02:49;;;;;;;;;2.75;2.75;;;;;;;;6286284;22;31425;-67
2023/05/08 18:05:14;;;;;;;;;3.00;3.00;;;;;;;;6285308;22;31021;-67
2023/05/08 18:07:39;;;;;;;;;7.50;7.50;;;;;;;;6285199;22;31375;-69
2023/05/08 18:10:05;;;;;;;;;7.00;5.25;;;;;;;;6286298;22;31730;-67
2023/05/08 18:12:30;;;;;;;;;3.25;3.25;;;;;;;;6285941;22;31134;-68
2023/05/08 18:14:56;;;;;;;;;3.75;3.75;;;;;;;;6286244;22;30494;-67
2023/05/08 18:17:21;;;;;;;;;6.00;4.50;;;;;;;;6286408;22;30986;-68
2023/05/08 18:19:46;;;;;;;;;5.25;5.25;;;;;;;;6285977;22;30950;-68
2023/05/08 18:22:11;;;;;;;;;3.75;3.75;;;;;;;;6286121;22;31037;-67
2023/05/08 18:24:37;;;;;;;;;4.50;3.50;;;;;;;;6258366;22;31129;-66
2023/05/08 18:27:02;;;;;;;;;3.75;3.75;;;;;;;;6286667;22;31312;-68
2023/05/08 18:29:27;;;;;;;;;4.75;4.75;;;;;;;;6286557;22;31300;-66
2023/05/08 18:31:52;;;;;;;;;4.25;4.25;;;;;;;;6284572;22;31522;-71
2023/05/08 18:34:17;;;;;;;;;5.00;5.00;;;;;;;;6284592;22;31355;-74
2023/05/08 18:36:43;;;;;;;;;4.00;4.00;;;;;;;;6285617;22;31464;-68
2023/05/08 18:39:08;;;;;;;;;5.00;5.00;;;;;;;;6285108;22;31644;-68
2023/05/08 18:41:33;;;;;;;;;3.50;3.25;;;;;;;;6284228;22;31093;-68
2023/05/08 18:44:03;;;;;;;;;6.00;5.00;;;;;;;;6256479;22;31102;-68
2023/05/08 18:46:28;;;;;;;;;4.00;4.00;;;;;;;;6284326;22;31015;-68
2023/05/08 18:48:54;;;;;;;;;4.00;3.50;;;;;;;;6283344;22;33163;-68
2023/05/08 18:51:19;;;;;;;;;3.25;3.25;;;;;;;;6284894;22;31018;-66
2023/05/08 18:53:44;;;;;;;;;3.75;3.75;;;;;;;;6284062;22;31349;-68
2023/05/08 18:56:11;;;;;;;;;6.00;5.75;;;;;;;;6284714;22;31232;-67
2023/05/08 18:58:36;;;;;;;;;2.75;2.00;;;;;;;;6284682;22;31126;-67
2023/05/08 19:01:01;;;;;;;;;4.50;4.50;;;;;;;;6284355;22;30951;-67
2023/05/08 19:03:26;;;;;;;;;4.75;4.75;;;;;;;;6284315;22;31095;-67
2023/05/08 19:05:53;;;;;;;;;5.00;4.00;;;;;;;;6284683;22;31009;-67
2023/05/08 19:08:18;;;;;;;;;4.75;4.75;;;;;;;;6283957;22;31733;-67
2023/05/08 19:10:43;;;;;;;;;5.00;5.00;;;;;;;;6283778;22;31590;-66
2023/05/08 19:13:08;;;;;;;;;5.00;5.00;;;;;;;;6285724;22;31068;-66
2023/05/08 19:15:33;;;;;;;;;5.50;5.50;;;;;;;;6285125;22;31412;-67
2023/05/08 19:18:00;;;;;;;;;5.75;5.75;;;;;;;;6284106;22;31623;-67
2023/05/08 19:20:25;;;;;;;;;4.75;4.75;;;;;;;;6285610;22;31022;-67
2023/05/08 19:22:50;;;;;;;;;5.25;5.25;;;;;;;;6284544;22;31203;-66
2023/05/08 19:25:15;;;;;;;;;7.00;7.00;;;;;;;;6285183;22;31042;-68
2023/05/08 19:27:40;;;;;;;;;8.00;7.00;;;;;;;;6283858;22;32189;-66
2023/05/08 19:30:06;;;;;;;;;5.50;4.50;;;;;;;;6284534;22;31026;-66
2023/05/08 19:32:31;;;;;;;;;4.75;4.75;;;;;;;;6284706;22;31263;-65
2023/05/08 19:34:56;;;;;;;;;6.25;6.25;;;;;;;;6284384;22;31503;-66
2023/05/08 19:37:23;;;;;;;;;8.00;5.00;;;;;;;;6284487;22;31218;-66
2023/05/08 19:39:48;;;;;;;;;6.00;6.00;;;;;;;;6284225;22;31554;-66
2023/05/08 19:42:13;;;;;;;;;6.75;6.75;;;;;;;;6285240;22;31389;-66
2023/05/08 19:44:38;;;;;;;;;5.00;5.00;;;;;;;;6284072;22;31002;-66
2023/05/08 19:47:04;;;;;;;;;5.50;5.50;;;;;;;;6284065;22;31009;-66
2023/05/08 19:49:29;;;;;;;;;3.75;3.75;;;;;;;;6286058;22;31113;-66
2023/05/08 19:51:54;;;;;;;;;6.75;6.50;;;;;;;;6257822;22;30951;-66
2023/05/08 19:54:19;;;;;;;;;8.75;8.00;;;;;;;;6285485;22;31090;-67
2023/05/08 19:56:45;;;;;;;;;5.00;5.00;;;;;;;;6285409;22;31000;-66
2023/05/08 19:59:10;;;;;;;;;6.75;6.75;;;;;;;;6285411;22;31027;-66
2023/05/08 20:01:36;;;;;;;;;6.25;6.25;;;;;;;;6285893;22;31322;-66
2023/05/08 20:04:01;;;;;;;;;6.50;6.25;;;;;;;;6285104;22;31371;-66
2023/05/08 20:06:26;;;;;;;;;9.00;8.50;;;;;;;;6284828;22;33030;-66
2023/05/08 20:08:52;;;;;;;;;5.25;5.25;;;;;;;;6285332;22;31280;-67
2023/05/08 20:11:17;;;;;;;;;6.25;6.25;;;;;;;;6284017;22;31291;-66
2023/05/08 20:13:42;;;;;;;;;9.25;8.00;;;;;;;;6285501;22;30915;-66
2023/05/08 20:16:08;;;;;;;;;6.25;6.00;;;;;;;;6284241;22;32676;-65
2023/05/08 20:18:33;;;;;;;;;6.25;6.00;;;;;;;;6285188;22;31123;-67
2023/05/08 20:20:59;;;;;;;;;9.25;8.25;;;;;;;;6284534;22;31128;-65
2023/05/08 20:23:24;;;;;;;;;7.00;7.00;;;;;;;;6285911;22;31475;-67
2023/05/08 20:25:50;;;;;;;;;7.00;5.75;;;;;;;;6285478;22;31756;-67
2023/05/08 20:28:20;;;;;;;;;9.00;8.00;;;;;;;;6284729;22;31088;-67
2023/05/08 20:30:46;;;;;;;;;7.00;6.75;;;;;;;;6285662;22;31222;-66
2023/05/08 20:33:11;;;;;;;;;5.00;5.00;;;;;;;;6285129;22;30949;-66
2023/05/08 20:35:36;;;;;;;;;8.75;7.00;;;;;;;;6285420;22;32698;-66
2023/05/08 20:38:01;;;;;;;;;9.00;9.00;;;;;;;;6285939;22;30982;-66
2023/05/08 20:40:26;;;;;;;;;5.25;5.25;;;;;;;;6283526;22;31302;-67
2023/05/08 20:42:52;;;;;;;;;4.75;4.75;;;;;;;;6284539;22;31247;-67
2023/05/08 20:45:17;;;;;;;;;5.00;5.00;;;;;;;;6284755;22;32054;-68
2023/05/08 20:47:42;;;;;;;;;6.50;6.50;;;;;;;;6285056;22;31081;-68
2023/05/08 20:50:08;;;;;;;;;5.75;5.75;;;;;;;;6285470;22;31139;-67
2023/05/08 20:52:33;;;;;;;;;6.75;6.50;;;;;;;;6285860;22;30935;-67
